createdAt,value
2024-01-24T00:02:00.703Z,4.13
2024-01-24T00:04:27.937Z,1.33
2024-01-24T00:06:54.519Z,1.42
2024-01-24T00:09:21.157Z,1.88
2024-01-24T00:11:47.673Z,3.17
2024-01-24T00:14:14.283Z,1.33
2024-01-24T00:16:41.785Z,2.72
2024-01-24T00:19:08.388Z,1.30
2024-01-24T00:21:34.955Z,0.93
2024-01-24T00:24:01.524Z,2.10
2024-01-24T00:26:28.057Z,3.20
2024-01-24T00:28:54.609Z,1.00
2024-01-24T00:31:21.042Z,2.47
2024-01-24T00:33:47.646Z,1.17
2024-01-24T00:36:15.323Z,3.17
2024-01-24T00:38:41.777Z,1.83
2024-01-24T00:41:08.250Z,0.90
2024-01-24T00:43:34.698Z,1.23
2024-01-24T00:46:01.339Z,1.20
2024-01-24T00:48:27.932Z,1.92
2024-01-24T00:50:54.584Z,1.88
2024-01-24T00:53:21.850Z,1.33
2024-01-24T00:55:48.801Z,1.95
2024-01-24T00:58:15.454Z,2.40
2024-01-24T01:00:42.112Z,1.95
2024-01-24T01:03:09.728Z,1.95
2024-01-24T01:05:37.604Z,1.10
2024-01-24T01:08:06.347Z,1.60
2024-01-24T01:10:32.841Z,1.20
2024-01-24T01:12:59.302Z,1.63
2024-01-24T01:15:25.896Z,2.13
2024-01-24T01:17:52.852Z,1.05
2024-01-24T01:20:22.500Z,2.65
2024-01-24T01:22:49.472Z,1.73
2024-01-24T01:25:16.063Z,1.38
2024-01-24T01:27:42.678Z,1.17
2024-01-24T01:30:09.923Z,1.67
2024-01-24T01:32:36.765Z,0.98
2024-01-24T01:35:03.297Z,1.10
2024-01-24T01:37:29.820Z,0.90
2024-01-24T01:39:56.291Z,0.80
2024-01-24T01:42:23.032Z,1.27
2024-01-24T01:44:49.645Z,1.75
2024-01-24T01:47:17.282Z,0.82
2024-01-24T01:49:45.010Z,0.90
2024-01-24T01:52:12.073Z,1.90
2024-01-24T01:54:41.218Z,1.52
2024-01-24T01:57:10.028Z,1.55
2024-01-24T01:59:37.681Z,1.20
2024-01-24T02:02:05.109Z,1.10
2024-01-24T02:04:31.724Z,1.30
2024-01-24T02:06:58.823Z,1.45
2024-01-24T02:09:25.951Z,2.22
2024-01-24T02:11:52.622Z,1.75
2024-01-24T02:14:19.202Z,2.22
2024-01-24T02:16:45.833Z,1.25
2024-01-24T02:19:12.458Z,3.08
2024-01-24T02:21:39.216Z,3.50
2024-01-24T02:24:12.516Z,3.05
2024-01-24T02:26:39.968Z,3.92
2024-01-24T02:29:08.717Z,3.45
2024-01-24T02:31:35.200Z,3.45
2024-01-24T02:34:02.974Z,1.23
2024-01-24T02:36:29.727Z,2.28
2024-01-24T02:38:58.535Z,1.90
2024-01-24T02:41:25.497Z,2.65
2024-01-24T02:43:51.974Z,2.53
2024-01-24T02:46:18.521Z,2.72
2024-01-24T02:48:45.036Z,3.55
2024-01-24T02:51:11.903Z,1.92
2024-01-24T02:53:39.560Z,3.47
2024-01-24T02:56:06.225Z,4.20
2024-01-24T02:58:32.721Z,3.13
2024-01-24T03:00:59.225Z,3.85
2024-01-24T03:03:25.772Z,3.33
2024-01-24T03:05:52.414Z,5.40
2024-01-24T03:08:18.915Z,5.63
2024-01-24T03:10:45.456Z,3.03
2024-01-24T03:13:11.964Z,2.05
2024-01-24T03:15:38.574Z,2.53
2024-01-24T03:18:05.341Z,2.55
2024-01-24T03:20:31.841Z,3.42
2024-01-24T03:22:58.296Z,8.15
2024-01-24T03:25:24.873Z,1.95
2024-01-24T03:27:51.341Z,4.63
2024-01-24T03:30:18.037Z,2.50
2024-01-24T03:32:44.831Z,5.43
2024-01-24T03:35:11.594Z,7.18
2024-01-24T03:37:38.256Z,5.80
2024-01-24T03:40:06.508Z,4.88
2024-01-24T03:42:33.654Z,6.22
2024-01-24T03:45:00.332Z,3.17
2024-01-24T03:47:26.802Z,8.35
2024-01-24T03:49:53.305Z,4.68
2024-01-24T03:52:19.950Z,6.95
2024-01-24T03:54:46.492Z,5.70
2024-01-24T03:57:12.980Z,7.75
2024-01-24T03:59:39.396Z,3.67
2024-01-24T04:02:05.829Z,8.13
2024-01-24T04:04:32.456Z,7.70
2024-01-24T04:06:59.118Z,9.18
2024-01-24T04:09:25.741Z,4.93
2024-01-24T04:11:52.292Z,10.45
2024-01-24T04:14:18.883Z,7.50
2024-01-24T04:16:45.363Z,5.45
2024-01-24T04:19:11.912Z,9.60
2024-01-24T04:21:44.823Z,9.60
2024-01-24T04:24:11.579Z,5.85
2024-01-24T04:26:38.558Z,13.23
2024-01-24T04:29:05.235Z,13.95
2024-01-24T04:31:31.784Z,8.98
2024-01-24T04:33:58.459Z,11.45
2024-01-24T04:36:25.056Z,8.57
2024-01-24T04:38:51.557Z,9.93
2024-01-24T04:41:18.108Z,10.05
2024-01-24T04:43:44.605Z,10.93
2024-01-24T04:46:17.352Z,12.85
2024-01-24T04:48:45.226Z,13.48
2024-01-24T04:51:14.649Z,15.45
2024-01-24T04:53:41.374Z,11.55
2024-01-24T04:56:08.451Z,12.15
2024-01-24T04:58:34.956Z,11.57
2024-01-24T05:01:01.791Z,13.10
2024-01-24T05:03:28.837Z,12.98
2024-01-24T05:06:01.221Z,10.95
2024-01-24T05:08:33.961Z,8.30
2024-01-24T05:11:00.396Z,12.25
2024-01-24T05:13:26.825Z,10.93
2024-01-24T05:15:53.321Z,16.65
2024-01-24T05:18:20.022Z,10.07
2024-01-24T05:20:46.548Z,13.80
2024-01-24T05:23:13.025Z,15.15
2024-01-24T05:25:41.458Z,10.30
2024-01-24T05:28:09.355Z,14.70
2024-01-24T05:30:37.069Z,19.67
2024-01-24T05:33:04.401Z,12.15
2024-01-24T05:35:31.065Z,13.65
2024-01-24T05:37:57.708Z,13.10
2024-01-24T05:40:24.170Z,14.55
2024-01-24T05:42:53.311Z,12.30
2024-01-24T05:45:20.477Z,10.73
2024-01-24T05:47:47.140Z,19.40
2024-01-24T05:50:14.359Z,15.07
2024-01-24T05:52:43.952Z,15.60
2024-01-24T05:55:14.390Z,17.85
2024-01-24T05:57:41.878Z,17.25
2024-01-24T06:00:10.795Z,14.73
2024-01-24T06:02:37.785Z,16.60
2024-01-24T06:05:04.900Z,15.77
2024-01-24T06:07:32.514Z,18.88
2024-01-24T06:09:59.093Z,19.58
2024-01-24T06:12:25.683Z,13.43
2024-01-24T06:14:53.454Z,16.15
2024-01-24T06:17:19.912Z,14.90
2024-01-24T06:19:46.505Z,15.10
2024-01-24T06:22:12.938Z,19.45
2024-01-24T06:24:39.557Z,18.63
2024-01-24T06:27:06.572Z,19.63
2024-01-24T06:30:15.752Z,13.80
2024-01-24T06:32:19.339Z,18.88
2024-01-24T06:34:45.779Z,15.82
2024-01-24T06:37:14.984Z,15.13
2024-01-24T06:39:41.516Z,22.85
2024-01-24T06:42:08.049Z,13.25
2024-01-24T06:44:34.711Z,14.05
2024-01-24T06:47:01.161Z,18.77
2024-01-24T06:49:27.762Z,16.23
2024-01-24T06:51:54.414Z,19.30
2024-01-24T06:54:21.041Z,15.45
2024-01-24T06:56:47.503Z,13.02
2024-01-24T06:59:15.016Z,16.35
2024-01-24T07:01:41.504Z,18.70
2024-01-24T07:04:08.122Z,19.20
2024-01-24T07:06:34.706Z,19.83
2024-01-24T07:09:01.220Z,16.25
2024-01-24T07:11:27.665Z,18.92
2024-01-24T07:13:54.226Z,15.60
2024-01-24T07:16:20.820Z,20.05
2024-01-24T07:18:47.845Z,14.18
2024-01-24T07:21:15.474Z,16.55
2024-01-24T07:23:41.956Z,14.15
2024-01-24T07:26:08.520Z,18.30
2024-01-24T07:28:36.245Z,21.13
2024-01-24T07:31:03.654Z,14.30
2024-01-24T07:33:30.373Z,14.07
2024-01-24T07:35:56.980Z,14.45
2024-01-24T07:38:23.996Z,16.45
2024-01-24T07:40:50.493Z,17.40
2024-01-24T07:43:17.166Z,26.58
2024-01-24T07:45:43.977Z,18.88
2024-01-24T07:48:15.272Z,22.27
2024-01-24T07:50:43.417Z,24.83
2024-01-24T07:53:10.535Z,19.00
2024-01-24T07:55:46.818Z,19.15
2024-01-24T07:58:20.686Z,20.83
2024-01-24T08:00:47.176Z,17.83
2024-01-24T08:03:14.303Z,16.90
2024-01-24T08:05:40.900Z,13.02
2024-01-24T08:08:07.697Z,13.00
2024-01-24T08:10:34.261Z,19.10
2024-01-24T08:13:00.990Z,19.38
2024-01-24T08:15:27.850Z,16.50
2024-01-24T08:17:55.427Z,14.60
2024-01-24T08:20:22.992Z,21.33
2024-01-24T08:22:50.071Z,19.83
2024-01-24T08:25:16.749Z,16.95
2024-01-24T08:27:43.303Z,17.45
2024-01-24T08:30:09.909Z,19.88
2024-01-24T08:32:41.403Z,20.15
2024-01-24T08:35:09.432Z,18.40
2024-01-24T08:37:35.953Z,16.23
2024-01-24T08:40:03.199Z,16.95
2024-01-24T08:42:30.162Z,19.58
2024-01-24T08:44:57.716Z,12.57
2024-01-24T08:47:24.202Z,15.77
2024-01-24T08:49:51.650Z,12.60
2024-01-24T08:52:18.302Z,16.02
2024-01-24T08:54:45.268Z,16.60
2024-01-24T08:57:12.344Z,13.98
2024-01-24T08:59:39.765Z,14.57
2024-01-24T09:02:08.340Z,18.85
2024-01-24T09:04:37.800Z,19.90
2024-01-24T09:07:05.271Z,19.35
2024-01-24T09:09:33.829Z,17.55
2024-01-24T09:12:01.118Z,14.25
2024-01-24T09:14:28.080Z,14.10
2024-01-24T09:16:55.002Z,13.88
2024-01-24T09:19:22.144Z,16.45
2024-01-24T09:21:51.757Z,17.90
2024-01-24T09:24:18.633Z,15.63
2024-01-24T09:26:45.379Z,17.00
2024-01-24T09:29:13.439Z,14.60
2024-01-24T09:31:44.601Z,15.00
2024-01-24T09:34:15.278Z,13.95
2024-01-24T09:36:42.253Z,20.17
2024-01-24T09:39:10.440Z,17.55
2024-01-24T09:41:42.004Z,17.08
2024-01-24T09:44:15.509Z,23.10
2024-01-24T09:46:42.019Z,19.30
2024-01-24T09:49:08.945Z,18.10
2024-01-24T09:51:36.348Z,14.70
2024-01-24T09:54:07.625Z,15.63
2024-01-24T09:56:38.678Z,17.38
2024-01-24T09:59:06.437Z,20.48
2024-01-24T10:01:35.665Z,14.48
2024-01-24T10:04:02.957Z,12.27
2024-01-24T10:06:30.173Z,15.80
2024-01-24T10:09:00.438Z,14.02
2024-01-24T10:11:27.808Z,17.23
2024-01-24T10:13:58.609Z,10.10
2024-01-24T10:16:27.297Z,13.45
2024-01-24T10:18:58.047Z,16.10
2024-01-24T10:21:26.656Z,14.65
2024-01-24T10:23:56.510Z,19.90
2024-01-24T10:26:23.235Z,15.52
2024-01-24T10:28:50.314Z,12.23
2024-01-24T10:31:21.593Z,15.23
2024-01-24T10:33:49.921Z,15.48
2024-01-24T10:39:04.885Z,14.68
2024-01-24T10:41:33.419Z,18.20
2024-01-24T10:44:07.197Z,17.35
2024-01-24T10:46:34.452Z,11.30
2024-01-24T10:49:02.639Z,14.98
2024-01-24T10:51:29.625Z,16.73
2024-01-24T10:53:56.905Z,18.10
2024-01-24T10:56:26.012Z,14.27
2024-01-24T10:58:52.940Z,14.60
2024-01-24T11:01:19.816Z,14.10
2024-01-24T11:03:51.373Z,14.00
2024-01-24T11:06:19.823Z,16.58
2024-01-24T11:09:01.788Z,14.98
2024-01-24T11:11:33.095Z,18.08
2024-01-24T11:14:00.336Z,14.45
2024-01-24T11:16:26.716Z,17.33
2024-01-24T11:18:53.896Z,13.88
2024-01-24T11:21:24.148Z,15.10
2024-01-24T11:23:50.742Z,13.60
2024-01-24T11:26:20.046Z,16.27
2024-01-24T11:28:47.583Z,14.40
2024-01-24T11:31:15.322Z,14.02
2024-01-24T11:34:11.160Z,15.63
2024-01-24T11:36:49.185Z,17.48
2024-01-24T11:39:40.984Z,12.98
2024-01-24T11:42:31.481Z,16.45
2024-01-24T11:45:15.542Z,14.80
2024-01-24T11:47:42.344Z,15.02
2024-01-24T11:50:12.217Z,11.02
2024-01-24T11:52:39.463Z,11.85
2024-01-24T11:55:06.904Z,17.38
2024-01-24T11:57:33.485Z,12.23
2024-01-24T12:00:00.039Z,13.88
2024-01-24T12:02:27.052Z,12.82
2024-01-24T12:04:54.110Z,16.35
2024-01-24T12:07:20.848Z,15.40
2024-01-24T12:09:49.510Z,20.08
2024-01-24T12:12:17.359Z,13.93
2024-01-24T12:14:44.581Z,14.10
2024-01-24T12:17:11.677Z,12.88
2024-01-24T12:19:38.655Z,13.90
2024-01-24T12:22:10.394Z,11.57
2024-01-24T12:24:43.578Z,14.73
2024-01-24T12:27:10.809Z,10.32
2024-01-24T12:29:37.512Z,14.48
2024-01-24T12:32:06.299Z,10.38
2024-01-24T12:34:33.387Z,12.18
2024-01-24T12:37:03.403Z,12.40
2024-01-24T12:39:33.783Z,10.65
2024-01-24T12:42:03.563Z,16.25
2024-01-24T12:44:30.720Z,11.70
2024-01-24T12:46:58.784Z,12.98
2024-01-24T12:49:26.535Z,8.82
2024-01-24T12:51:54.607Z,18.40
2024-01-24T12:54:22.777Z,11.23
2024-01-24T12:56:49.954Z,10.48
2024-01-24T12:59:18.297Z,15.45
2024-01-24T13:01:45.004Z,12.43
2024-01-24T13:04:11.779Z,11.63
2024-01-24T13:06:38.796Z,15.30
2024-01-24T13:09:06.191Z,12.05
2024-01-24T13:11:33.280Z,15.05
2024-01-24T13:13:59.989Z,17.05
2024-01-24T13:16:26.875Z,17.27
2024-01-24T13:18:53.947Z,10.15
2024-01-24T13:21:20.562Z,13.85
2024-01-24T13:23:47.090Z,14.20
2024-01-24T13:26:13.949Z,14.40
2024-01-24T13:28:40.932Z,8.93
2024-01-24T13:31:07.489Z,12.50
2024-01-24T13:33:35.191Z,13.35
2024-01-24T13:36:02.400Z,9.38
2024-01-24T13:38:29.959Z,13.15
2024-01-24T13:40:56.907Z,18.35
2024-01-24T13:43:23.719Z,15.23
2024-01-24T13:45:50.439Z,14.25
2024-01-24T13:48:17.920Z,15.13
2024-01-24T13:50:47.399Z,14.55
2024-01-24T13:53:13.919Z,11.52
2024-01-24T13:55:41.085Z,15.00
2024-01-24T13:58:07.929Z,12.57
2024-01-24T14:00:34.504Z,15.30
2024-01-24T14:03:01.382Z,10.98
2024-01-24T14:05:28.147Z,14.15
2024-01-24T14:07:54.701Z,16.58
2024-01-24T14:10:21.469Z,11.32
2024-01-24T14:12:48.278Z,15.23
2024-01-24T14:15:24.417Z,15.95
2024-01-24T14:17:59.699Z,16.85
2024-01-24T14:20:26.504Z,13.15
2024-01-24T14:22:53.066Z,15.55
2024-01-24T14:25:19.680Z,16.08
2024-01-24T14:27:46.240Z,11.50
2024-01-24T14:30:13.610Z,12.40
2024-01-24T14:32:40.325Z,11.90
2024-01-24T14:35:08.078Z,9.80
2024-01-24T14:37:35.817Z,10.68
2024-01-24T14:40:02.386Z,14.60
2024-01-24T14:42:28.887Z,14.35
2024-01-24T14:44:55.510Z,13.02
2024-01-24T14:47:22.011Z,14.15
2024-01-24T14:49:48.588Z,16.08
2024-01-24T14:52:16.377Z,13.15
2024-01-24T14:54:42.975Z,9.98
2024-01-24T14:57:26.910Z,12.00
2024-01-24T14:59:53.442Z,12.75
2024-01-24T15:02:19.927Z,13.43
2024-01-24T15:04:46.523Z,13.65
2024-01-24T15:07:13.365Z,15.85
2024-01-24T15:09:39.882Z,11.70
2024-01-24T15:12:06.853Z,10.63
2024-01-24T15:14:33.296Z,10.75
2024-01-24T15:16:59.708Z,10.27
2024-01-24T15:19:26.937Z,9.60
2024-01-24T15:21:53.950Z,11.88
2024-01-24T15:24:20.922Z,16.92
2024-01-24T15:26:47.619Z,10.85
2024-01-24T15:29:14.160Z,13.15
2024-01-24T15:31:40.674Z,10.93
2024-01-24T15:34:08.028Z,12.80
2024-01-24T15:36:35.947Z,12.18
2024-01-24T15:39:02.509Z,13.25
2024-01-24T15:41:29.231Z,13.27
2024-01-24T15:43:57.445Z,13.23
2024-01-24T15:46:26.348Z,15.75
2024-01-24T15:48:53.047Z,8.57
2024-01-24T15:51:19.630Z,10.88
2024-01-24T15:53:46.192Z,15.18
2024-01-24T15:56:13.164Z,14.02
2024-01-24T15:58:40.213Z,9.05
2024-01-24T16:01:07.107Z,12.93
2024-01-24T16:03:36.414Z,11.85
2024-01-24T16:06:05.094Z,16.15
2024-01-24T16:08:31.814Z,9.80
2024-01-24T16:10:59.802Z,15.75
2024-01-24T16:13:30.559Z,13.50
2024-01-24T16:15:57.602Z,13.48
2024-01-24T16:18:24.362Z,7.75
2024-01-24T16:20:50.906Z,10.30
2024-01-24T16:23:17.437Z,12.82
2024-01-24T16:25:43.983Z,12.52
2024-01-24T16:28:12.582Z,11.93
2024-01-24T16:30:42.556Z,14.82
2024-01-24T16:33:09.311Z,11.25
2024-01-24T16:35:35.921Z,12.52
2024-01-24T16:38:02.490Z,13.88
2024-01-24T16:40:28.968Z,14.90
2024-01-24T16:42:56.874Z,11.68
2024-01-24T16:45:23.979Z,10.82
2024-01-24T16:47:51.098Z,13.23
2024-01-24T16:50:18.064Z,11.15
2024-01-24T16:52:47.275Z,11.75
2024-01-24T16:55:13.940Z,9.48
2024-01-24T16:57:40.739Z,14.23
2024-01-24T17:00:07.795Z,14.52
2024-01-24T17:02:42.112Z,12.88
2024-01-24T17:05:12.943Z,13.00
2024-01-24T17:07:39.462Z,9.23
2024-01-24T17:10:06.759Z,18.13
2024-01-24T17:12:33.863Z,13.65
2024-01-24T17:15:00.636Z,9.90
2024-01-24T17:17:29.913Z,16.80
2024-01-24T17:19:57.148Z,17.55
2024-01-24T17:22:24.772Z,11.05
2024-01-24T17:24:51.555Z,10.93
2024-01-24T17:27:17.957Z,8.75
2024-01-24T17:29:47.586Z,13.82
2024-01-24T17:32:14.215Z,9.82
2024-01-24T17:34:44.493Z,12.93
2024-01-24T17:37:11.452Z,11.98
2024-01-24T17:39:38.296Z,11.15
2024-01-24T17:42:05.111Z,10.18
2024-01-24T17:44:34.054Z,10.52
2024-01-24T17:47:00.651Z,11.88
2024-01-24T17:49:27.632Z,11.65
2024-01-24T17:51:54.599Z,12.23
2024-01-24T17:54:21.910Z,11.05
2024-01-24T17:56:48.385Z,8.93
2024-01-24T17:59:14.882Z,13.35
2024-01-24T18:01:41.600Z,9.15
2024-01-24T18:04:08.279Z,10.80
2024-01-24T18:06:34.927Z,12.57
2024-01-24T18:09:01.608Z,11.40
2024-01-24T18:11:28.097Z,10.10
2024-01-24T18:13:54.567Z,12.05
2024-01-24T18:16:21.099Z,11.15
2024-01-24T18:18:48.843Z,10.82
2024-01-24T18:21:15.391Z,10.25
2024-01-24T18:23:41.811Z,13.27
2024-01-24T18:26:08.355Z,14.57
2024-01-24T18:28:34.788Z,15.60
2024-01-24T18:31:01.232Z,10.02
2024-01-24T18:33:27.972Z,9.05
2024-01-24T18:35:54.556Z,10.68
2024-01-24T18:38:21.029Z,13.40
2024-01-24T18:40:47.933Z,9.95
2024-01-24T18:43:14.493Z,11.02
2024-01-24T18:45:41.041Z,9.45
2024-01-24T18:48:08.029Z,11.85
2024-01-24T18:50:34.723Z,12.00
2024-01-24T18:53:01.280Z,9.98
2024-01-24T18:55:28.127Z,11.40
2024-01-24T18:57:54.926Z,9.77
2024-01-24T19:00:22.382Z,12.70
2024-01-24T19:02:49.566Z,18.48
2024-01-24T19:05:23.651Z,13.45
2024-01-24T19:07:57.009Z,10.77
2024-01-24T19:10:24.488Z,10.50
2024-01-24T19:12:51.028Z,13.20
2024-01-24T19:15:20.931Z,13.07
2024-01-24T19:17:47.680Z,14.32
2024-01-24T19:20:15.903Z,9.35
2024-01-24T19:22:42.569Z,14.10
2024-01-24T19:25:10.802Z,13.05
2024-01-24T19:27:37.360Z,12.57
2024-01-24T19:30:04.337Z,14.90
2024-01-24T19:32:30.945Z,11.90
2024-01-24T19:34:59.590Z,12.05
2024-01-24T19:37:27.079Z,8.88
2024-01-24T19:39:53.784Z,12.85
2024-01-24T19:42:23.805Z,9.05
2024-01-24T19:44:51.486Z,11.60
2024-01-24T19:47:18.090Z,10.35
2024-01-24T19:49:44.629Z,13.05
2024-01-24T19:52:12.459Z,13.27
2024-01-24T19:54:39.522Z,13.25
2024-01-24T19:57:06.431Z,13.10
2024-01-24T19:59:32.925Z,10.23
2024-01-24T20:01:59.374Z,12.13
2024-01-24T20:04:25.901Z,12.77
2024-01-24T20:06:52.587Z,8.70
2024-01-24T20:09:19.082Z,13.68
2024-01-24T20:11:45.553Z,9.77
2024-01-24T20:14:12.186Z,15.65
2024-01-24T20:16:38.722Z,14.05
2024-01-24T20:19:05.433Z,7.82
2024-01-24T20:21:32.192Z,10.55
2024-01-24T20:23:58.665Z,8.15
2024-01-24T20:26:25.772Z,10.75
2024-01-24T20:28:52.341Z,11.82
2024-01-24T20:31:18.858Z,13.85
2024-01-24T20:33:45.496Z,8.80
2024-01-24T20:36:12.889Z,15.60
2024-01-24T20:38:41.936Z,11.88
2024-01-24T20:43:40.221Z,12.77
2024-01-24T20:46:08.458Z,10.57
2024-01-24T20:48:36.288Z,9.95
2024-01-24T20:51:04.183Z,11.55
2024-01-24T20:53:31.402Z,7.30
2024-01-24T20:55:58.466Z,7.05
2024-01-24T20:58:25.735Z,10.98
2024-01-24T21:00:52.425Z,9.27
2024-01-24T21:03:19.111Z,11.98
2024-01-24T21:05:46.360Z,8.95
2024-01-24T21:08:13.235Z,12.27
2024-01-24T21:10:42.345Z,11.52
2024-01-24T21:13:15.476Z,10.68
2024-01-24T21:15:42.029Z,9.23
2024-01-24T21:18:09.769Z,10.60
2024-01-24T21:20:36.469Z,10.13
2024-01-24T21:23:03.926Z,11.38
2024-01-24T21:25:31.654Z,8.65
2024-01-24T21:27:58.206Z,11.90
2024-01-24T21:30:26.213Z,10.10
2024-01-24T21:32:53.688Z,11.75
2024-01-24T21:35:20.279Z,10.88
2024-01-24T21:37:46.756Z,9.45
2024-01-24T21:40:13.648Z,12.63
2024-01-24T21:42:40.169Z,7.95
2024-01-24T21:45:07.861Z,14.23
2024-01-24T21:47:34.348Z,9.88
2024-01-24T21:50:00.925Z,12.98
2024-01-24T21:52:27.586Z,8.05
2024-01-24T21:54:56.811Z,10.68
2024-01-24T21:57:24.610Z,9.90
2024-01-24T21:59:51.403Z,9.25
2024-01-24T22:02:18.037Z,9.98
2024-01-24T22:04:44.744Z,11.20
2024-01-24T22:07:13.893Z,8.90
2024-01-24T22:09:40.377Z,13.80
2024-01-24T22:12:10.812Z,10.73
2024-01-24T22:14:37.274Z,9.88
2024-01-24T22:17:03.857Z,12.55
2024-01-24T22:19:30.341Z,9.10
2024-01-24T22:21:56.867Z,12.85
2024-01-24T22:24:25.486Z,13.48
2024-01-24T22:26:52.164Z,8.18
2024-01-24T22:29:18.818Z,8.50
2024-01-24T22:31:45.301Z,10.23
2024-01-24T22:34:11.847Z,11.70
2024-01-24T22:36:38.434Z,10.20
2024-01-24T22:39:05.129Z,14.07
2024-01-24T22:41:31.822Z,14.25
2024-01-24T22:43:58.325Z,10.35
2024-01-24T22:46:27.955Z,11.98
2024-01-24T22:48:54.875Z,12.20
2024-01-24T22:51:21.652Z,16.65
2024-01-24T22:53:48.087Z,11.82
2024-01-24T22:56:14.664Z,11.02
2024-01-24T22:58:41.090Z,9.82
2024-01-24T23:01:07.744Z,10.45
2024-01-24T23:03:34.340Z,16.60
2024-01-24T23:06:00.852Z,12.20
2024-01-24T23:08:27.434Z,12.98
2024-01-24T23:10:53.917Z,8.40
2024-01-24T23:13:20.495Z,13.65
2024-01-24T23:15:47.115Z,9.60
2024-01-24T23:18:14.231Z,14.25
2024-01-24T23:20:40.727Z,10.85
2024-01-24T23:23:13.632Z,12.52
2024-01-24T23:25:43.211Z,8.82
2024-01-24T23:28:12.851Z,17.23
2024-01-24T23:30:39.380Z,10.02
2024-01-24T23:33:06.150Z,10.40
2024-01-24T23:35:35.389Z,7.95
2024-01-24T23:38:01.962Z,11.82
2024-01-24T23:40:28.474Z,12.13
2024-01-24T23:42:54.976Z,16.10
2024-01-24T23:45:23.486Z,13.68
2024-01-24T23:47:50.128Z,16.52
2024-01-24T23:50:17.876Z,12.65
2024-01-24T23:52:44.676Z,10.88
2024-01-24T23:55:11.466Z,11.10
2024-01-24T23:57:38.009Z,10.20
